createdAt,value
2018-01-15T00:00:25.755Z,5.47
2018-01-15T00:01:25.457Z,5.48
2018-01-15T00:02:25.729Z,5.47
2018-01-15T00:03:25.783Z,5.46
2018-01-15T00:04:25.525Z,5.48
2018-01-15T00:05:25.850Z,5.54
2018-01-15T00:06:25.895Z,5.44
2018-01-15T00:07:25.862Z,5.43
2018-01-15T00:08:25.279Z,5.46
2018-01-15T00:09:25.861Z,5.5
2018-01-15T00:10:25.556Z,5.46
2018-01-15T00:11:25.912Z,5.47
2018-01-15T00:12:25.313Z,5.5
2018-01-15T00:13:25.338Z,5.53
2018-01-15T00:14:25.611Z,5.47
2018-01-15T00:15:25.921Z,5.5
2018-01-15T00:16:25.882Z,5.47
2018-01-15T00:17:25.388Z,5.47
2018-01-15T00:18:25.632Z,5.41
2018-01-15T00:19:25.698Z,5.46
2018-01-15T00:20:26.001Z,5.41
2018-01-15T00:21:25.704Z,5.47
2018-01-15T00:22:26.010Z,5.46
2018-01-15T00:23:25.973Z,5.46
2018-01-15T00:24:25.994Z,5.48
2018-01-15T00:25:25.425Z,5.43
2018-01-15T00:26:25.753Z,5.48
2018-01-15T00:27:26.039Z,5.51
2018-01-15T00:28:25.490Z,5.43
2018-01-15T00:29:26.048Z,5.5
2018-01-15T00:30:25.774Z,5.5
2018-01-15T00:31:25.534Z,5.48
2018-01-15T00:32:25.511Z,5.48
2018-01-15T00:33:25.793Z,5.46
2018-01-15T00:34:25.835Z,5.39
2018-01-15T00:35:25.552Z,5.48
2018-01-15T00:36:25.538Z,5.46
2018-01-15T00:37:25.880Z,5.46
2018-01-15T00:38:25.889Z,5.44
2018-01-15T00:39:26.121Z,5.43
2018-01-15T00:40:25.586Z,5.47
2018-01-15T00:41:25.922Z,5.48
2018-01-15T00:42:25.625Z,5.44
2018-01-15T00:43:25.623Z,5.5
2018-01-15T00:44:25.939Z,5.47
2018-01-15T00:45:26.216Z,5.53
2018-01-15T00:46:25.665Z,5.5
2018-01-15T00:47:25.918Z,5.47
2018-01-15T00:48:26.279Z,5.46
2018-01-15T00:49:25.993Z,5.46
2018-01-15T00:50:26.267Z,5.47
2018-01-15T00:51:25.990Z,5.5
2018-01-15T00:52:25.730Z,5.43
2018-01-15T00:53:26.013Z,5.47
2018-01-15T00:54:25.756Z,5.48
2018-01-15T00:55:26.065Z,5.54
2018-01-15T00:56:26.334Z,5.5
2018-01-15T00:57:26.315Z,5.47
2018-01-15T00:58:26.094Z,5.53
2018-01-15T00:59:26.051Z,5.48
2018-01-15T01:00:26.084Z,5.5
2018-01-15T01:01:26.109Z,5.47
2018-01-15T01:02:25.797Z,5.46
2018-01-15T01:03:25.835Z,5.44
2018-01-15T01:04:26.385Z,5.43
2018-01-15T01:05:25.851Z,5.5
2018-01-15T01:06:25.862Z,5.46
2018-01-15T01:07:26.402Z,5.46
2018-01-15T01:08:26.167Z,5.43
2018-01-15T01:09:26.197Z,5.47
2018-01-15T01:10:26.472Z,5.48
2018-01-15T01:11:26.176Z,5.46
2018-01-15T01:12:26.187Z,5.44
2018-01-15T01:13:26.218Z,5.48
2018-01-15T01:14:25.921Z,5.47
2018-01-15T01:15:26.240Z,5.47
2018-01-15T01:16:26.249Z,5.48
2018-01-15T01:17:25.985Z,5.48
2018-01-15T01:18:25.966Z,5.48
2018-01-15T01:19:26.274Z,5.53
2018-01-15T01:20:26.281Z,5.5
2018-01-15T01:21:26.582Z,5.47
2018-01-15T01:22:26.310Z,5.48
2018-01-15T01:23:26.355Z,5.41
2018-01-15T01:24:26.614Z,5.47
2018-01-15T01:25:26.630Z,5.44
2018-01-15T01:26:26.638Z,5.46
2018-01-15T01:27:26.378Z,5.5
2018-01-15T01:28:26.658Z,5.44
2018-01-15T01:29:26.413Z,5.47
2018-01-15T01:30:26.669Z,5.48
2018-01-15T01:31:26.687Z,5.46
2018-01-15T01:32:26.117Z,5.46
2018-01-15T01:33:26.447Z,5.46
2018-01-15T01:34:26.421Z,5.51
2018-01-15T01:35:26.458Z,5.41
2018-01-15T01:36:26.201Z,5.53
2018-01-15T01:37:26.221Z,5.5
2018-01-15T01:38:26.480Z,5.46
2018-01-15T01:39:26.178Z,5.47
2018-01-15T01:40:26.502Z,5.5
2018-01-15T01:41:26.525Z,5.46
2018-01-15T01:42:26.233Z,5.41
2018-01-15T01:43:26.230Z,5.48
2018-01-15T01:44:26.547Z,5.41
2018-01-15T01:45:26.551Z,5.47
2018-01-15T01:46:26.273Z,5.47
2018-01-15T01:47:26.295Z,5.48
2018-01-15T01:48:26.571Z,5.44
2018-01-15T01:49:26.561Z,5.41
2018-01-15T01:50:26.981Z,5.43
2018-01-15T01:51:26.609Z,5.48
2018-01-15T01:52:26.591Z,5.48
2018-01-15T01:53:26.359Z,5.48
2018-01-15T01:54:26.615Z,5.48
2018-01-15T01:55:26.634Z,5.43
2018-01-15T01:56:26.990Z,5.5
2018-01-15T01:57:26.820Z,5.39
2018-01-15T01:58:26.992Z,5.46
2018-01-15T01:59:27.004Z,5.47
2018-01-15T02:00:26.428Z,5.44
2018-01-15T02:01:26.415Z,5.51
2018-01-15T02:02:26.701Z,5.44
2018-01-15T02:03:27.023Z,5.44
2018-01-15T02:04:26.733Z,5.48
2018-01-15T02:05:27.168Z,5.47
2018-01-15T02:06:26.490Z,5.51
2018-01-15T02:07:26.773Z,5.53
2018-01-15T02:08:26.786Z,5.53
2018-01-15T02:09:26.794Z,5.5
2018-01-15T02:10:26.508Z,5.53
2018-01-15T02:11:26.815Z,5.5
2018-01-15T02:12:26.820Z,5.43
2018-01-15T02:13:27.129Z,5.57
2018-01-15T02:14:26.838Z,5.47
2018-01-15T02:15:26.858Z,5.47
2018-01-15T02:16:26.838Z,5.56
2018-01-15T02:17:27.542Z,5.43
2018-01-15T02:18:26.891Z,5.47
2018-01-15T02:19:26.889Z,5.47
2018-01-15T02:20:26.882Z,5.47
2018-01-15T02:21:26.634Z,5.51
2018-01-15T02:22:27.224Z,5.47
2018-01-15T02:23:26.969Z,5.59
2018-01-15T02:24:26.970Z,5.44
2018-01-15T02:25:26.965Z,5.43
2018-01-15T02:26:26.974Z,5.53
2018-01-15T02:27:26.697Z,5.47
2018-01-15T02:28:27.003Z,5.46
2018-01-15T02:29:27.024Z,5.48
2018-01-15T02:30:27.011Z,5.56
2018-01-15T02:31:27.302Z,5.46
2018-01-15T02:32:27.289Z,5.44
2018-01-15T02:33:26.747Z,5.53
2018-01-15T02:34:27.045Z,5.46
2018-01-15T02:35:27.091Z,5.5
2018-01-15T02:36:27.392Z,5.47
2018-01-15T02:37:26.810Z,5.44
2018-01-15T02:38:27.164Z,5.5
2018-01-15T02:39:27.425Z,5.46
2018-01-15T02:40:27.359Z,5.41
2018-01-15T02:41:27.449Z,5.48
2018-01-15T02:42:27.434Z,5.47
2018-01-15T02:43:27.121Z,5.41
2018-01-15T02:44:27.194Z,5.41
2018-01-15T02:45:27.168Z,5.41
2018-01-15T02:46:27.494Z,5.38
2018-01-15T02:47:27.196Z,5.41
2018-01-15T02:48:27.210Z,5.43
2018-01-15T02:49:26.922Z,5.39
2018-01-15T02:50:27.504Z,5.35
2018-01-15T02:51:26.978Z,5.33
2018-01-15T02:52:27.520Z,5.46
2018-01-15T02:53:27.261Z,5.32
2018-01-15T02:54:27.013Z,5.36
2018-01-15T02:55:27.044Z,5.35
2018-01-15T02:56:27.258Z,5.32
2018-01-15T02:57:27.310Z,5.32
2018-01-15T02:58:27.028Z,5.26
2018-01-15T02:59:27.300Z,5.32
2018-01-15T03:00:27.565Z,5.3
2018-01-15T03:01:27.311Z,5.35
2018-01-15T03:02:27.065Z,5.29
2018-01-15T03:03:27.341Z,5.25
2018-01-15T03:04:27.353Z,5.26
2018-01-15T03:05:27.346Z,5.26
2018-01-15T03:06:27.399Z,5.23
2018-01-15T03:07:27.433Z,5.35
2018-01-15T03:08:27.702Z,5.25
2018-01-15T03:09:27.413Z,5.21
2018-01-15T03:10:27.680Z,5.23
2018-01-15T03:11:27.454Z,5.25
2018-01-15T03:12:27.718Z,5.18
2018-01-15T03:13:27.773Z,5.25
2018-01-15T03:14:27.189Z,5.25
2018-01-15T03:15:27.732Z,5.23
2018-01-15T03:16:27.739Z,5.26
2018-01-15T03:17:27.812Z,5.2
2018-01-15T03:18:27.874Z,5.23
2018-01-15T03:19:27.220Z,5.18
2018-01-15T03:20:27.529Z,5.21
2018-01-15T03:21:27.779Z,5.2
2018-01-15T03:22:27.823Z,5.17
2018-01-15T03:23:27.843Z,5.12
2018-01-15T03:24:27.596Z,5.08
2018-01-15T03:25:27.567Z,5.12
2018-01-15T03:26:27.312Z,5.18
2018-01-15T03:27:27.325Z,5.08
2018-01-15T03:28:27.329Z,5.12
2018-01-15T03:29:27.616Z,5.1
2018-01-15T03:30:27.878Z,5.14
2018-01-15T03:31:27.919Z,5.08
2018-01-15T03:32:27.684Z,5.08
2018-01-15T03:33:27.931Z,5.11
2018-01-15T03:34:27.749Z,5.12
2018-01-15T03:35:27.402Z,5.11
2018-01-15T03:36:27.712Z,5.1
2018-01-15T03:37:28.016Z,5.05
2018-01-15T03:38:27.901Z,5.07
2018-01-15T03:39:27.701Z,5.05
2018-01-15T03:40:27.422Z,4.99
2018-01-15T03:41:27.729Z,4.99
2018-01-15T03:42:27.718Z,5.08
2018-01-15T03:43:27.558Z,4.97
2018-01-15T03:44:27.784Z,4.99
2018-01-15T03:45:27.505Z,5.05
2018-01-15T03:46:27.790Z,5.02
2018-01-15T03:47:27.517Z,4.99
2018-01-15T03:48:27.783Z,5.05
2018-01-15T03:49:27.538Z,4.99
2018-01-15T03:50:27.843Z,4.94
2018-01-15T03:51:27.567Z,4.94
2018-01-15T03:52:27.577Z,4.93
2018-01-15T03:53:27.608Z,4.94
2018-01-15T03:54:28.313Z,4.96
2018-01-15T03:55:28.204Z,4.99
2018-01-15T03:56:27.912Z,4.96
2018-01-15T03:57:27.618Z,4.89
2018-01-15T03:58:28.193Z,4.93
2018-01-15T03:59:27.920Z,5.02
2018-01-15T04:00:27.952Z,4.87
2018-01-15T04:01:28.236Z,4.93
2018-01-15T04:02:27.972Z,4.93
2018-01-15T04:03:28.336Z,4.93
2018-01-15T04:04:27.981Z,4.94
2018-01-15T04:05:27.983Z,4.9
2018-01-15T04:06:28.239Z,4.87
2018-01-15T04:07:27.697Z,4.87
2018-01-15T04:08:27.768Z,4.93
2018-01-15T04:09:28.003Z,4.92
2018-01-15T04:10:27.758Z,4.9
2018-01-15T04:11:28.085Z,4.84
2018-01-15T04:12:28.042Z,4.92
2018-01-15T04:13:28.111Z,4.89
2018-01-15T04:14:28.040Z,4.87
2018-01-15T04:15:28.131Z,4.89
2018-01-15T04:16:27.785Z,4.9
2018-01-15T04:17:28.102Z,4.89
2018-01-15T04:18:28.500Z,4.92
2018-01-15T04:19:28.121Z,4.96
2018-01-15T04:20:27.868Z,4.87
2018-01-15T04:21:28.173Z,4.89
2018-01-15T04:22:28.438Z,4.89
2018-01-15T04:23:28.047Z,4.93
2018-01-15T04:24:28.460Z,4.78
2018-01-15T04:25:28.150Z,4.9
2018-01-15T04:26:28.190Z,4.9
2018-01-15T04:27:28.207Z,4.8
2018-01-15T04:28:28.180Z,4.8
2018-01-15T04:29:27.958Z,4.86
2018-01-15T04:30:27.967Z,4.82
2018-01-15T04:31:28.524Z,4.82
2018-01-15T04:32:27.966Z,4.82
2018-01-15T04:33:28.541Z,4.9
2018-01-15T04:34:28.303Z,4.87
2018-01-15T04:35:28.567Z,4.89
2018-01-15T04:36:28.314Z,4.84
2018-01-15T04:37:28.310Z,4.82
2018-01-15T04:38:28.557Z,4.8
2018-01-15T04:39:28.293Z,4.78
2018-01-15T04:40:28.330Z,4.78
2018-01-15T04:41:28.623Z,4.8
2018-01-15T04:42:28.355Z,4.82
2018-01-15T04:43:28.087Z,4.82
2018-01-15T04:44:28.350Z,4.86
2018-01-15T04:45:28.086Z,4.86
2018-01-15T04:46:28.410Z,4.92
2018-01-15T04:47:28.399Z,4.87
2018-01-15T04:48:28.122Z,4.84
2018-01-15T04:49:28.155Z,4.86
2018-01-15T04:50:28.166Z,4.77
2018-01-15T04:51:28.472Z,4.86
2018-01-15T04:52:28.174Z,4.86
2018-01-15T04:53:28.482Z,4.84
2018-01-15T04:54:28.523Z,4.87
2018-01-15T04:55:28.495Z,4.86
2018-01-15T04:56:28.515Z,4.82
2018-01-15T04:57:28.246Z,4.82
2018-01-15T04:58:28.531Z,4.86
2018-01-15T04:59:28.553Z,4.87
2018-01-15T05:00:28.554Z,4.71
2018-01-15T05:01:28.550Z,4.86
2018-01-15T05:02:28.519Z,4.84
2018-01-15T05:03:28.284Z,4.78
2018-01-15T05:04:28.569Z,4.86
2018-01-15T05:05:28.303Z,4.87
2018-01-15T05:06:28.303Z,4.7
2018-01-15T05:07:28.871Z,4.71
2018-01-15T05:08:28.600Z,4.66
2018-01-15T05:09:28.596Z,4.68
2018-01-15T05:10:28.629Z,4.78
2018-01-15T05:11:28.606Z,4.75
2018-01-15T05:12:28.669Z,4.68
2018-01-15T05:13:28.627Z,4.7
2018-01-15T05:14:28.923Z,4.74
2018-01-15T05:15:28.425Z,4.7
2018-01-15T05:16:28.668Z,4.63
2018-01-15T05:17:28.674Z,4.7
2018-01-15T05:18:28.685Z,4.7
2018-01-15T05:19:28.696Z,4.74
2018-01-15T05:20:28.453Z,4.73
2018-01-15T05:21:29.019Z,4.7
2018-01-15T05:22:28.454Z,4.71
2018-01-15T05:23:29.067Z,4.7
2018-01-15T05:24:28.479Z,4.67
2018-01-15T05:25:28.754Z,4.73
2018-01-15T05:26:29.060Z,4.74
2018-01-15T05:27:29.142Z,4.67
2018-01-15T05:28:28.836Z,4.73
2018-01-15T05:29:28.532Z,4.68
2018-01-15T05:30:28.540Z,4.71
2018-01-15T05:31:28.857Z,4.73
2018-01-15T05:32:28.572Z,4.67
2018-01-15T05:33:28.856Z,4.74
2018-01-15T05:34:28.865Z,4.74
2018-01-15T05:35:28.851Z,4.71
2018-01-15T05:36:29.199Z,4.71
2018-01-15T05:37:28.918Z,4.62
2018-01-15T05:38:28.916Z,4.71
2018-01-15T05:39:28.882Z,4.6
2018-01-15T05:40:28.935Z,4.63
2018-01-15T05:41:29.181Z,4.58
2018-01-15T05:42:28.946Z,4.66
2018-01-15T05:43:28.953Z,4.6
2018-01-15T05:44:28.949Z,4.66
2018-01-15T05:45:29.299Z,4.59
2018-01-15T05:46:29.226Z,4.62
2018-01-15T05:47:28.688Z,4.62
2018-01-15T05:48:29.004Z,4.58
2018-01-15T05:49:29.028Z,4.73
2018-01-15T05:50:28.737Z,4.68
2018-01-15T05:51:29.062Z,4.71
2018-01-15T05:52:29.361Z,4.62
2018-01-15T05:53:28.798Z,4.74
2018-01-15T05:54:28.804Z,4.6
2018-01-15T05:55:29.389Z,4.59
2018-01-15T05:56:29.104Z,4.68
2018-01-15T05:57:28.804Z,4.56
2018-01-15T05:58:29.132Z,4.71
2018-01-15T05:59:28.896Z,4.56
2018-01-15T06:00:28.837Z,4.58
2018-01-15T06:01:28.843Z,4.73
2018-01-15T06:02:28.854Z,4.56
2018-01-15T06:03:29.154Z,4.6
2018-01-15T06:04:29.177Z,4.59
2018-01-15T06:05:29.169Z,4.55
2018-01-15T06:06:29.441Z,4.58
2018-01-15T06:07:29.201Z,4.55
2018-01-15T06:08:28.922Z,4.6
2018-01-15T06:09:28.913Z,4.58
2018-01-15T06:10:28.939Z,4.58
2018-01-15T06:11:28.932Z,4.62
2018-01-15T06:12:29.006Z,4.59
2018-01-15T06:13:29.548Z,4.59
2018-01-15T06:14:29.256Z,4.62
2018-01-15T06:15:28.977Z,4.62
2018-01-15T06:16:29.565Z,4.62
2018-01-15T06:17:28.983Z,4.56
2018-01-15T06:18:29.622Z,4.6
2018-01-15T06:19:29.003Z,4.6
2018-01-15T06:20:29.347Z,4.55
2018-01-15T06:21:29.839Z,4.63
2018-01-15T06:22:29.337Z,4.55
2018-01-15T06:23:29.081Z,4.63
2018-01-15T06:24:29.396Z,4.58
2018-01-15T06:25:29.346Z,4.59
2018-01-15T06:26:29.689Z,4.59
2018-01-15T06:27:29.658Z,4.59
2018-01-15T06:28:29.395Z,4.59
2018-01-15T06:29:29.727Z,4.6
2018-01-15T06:30:29.456Z,4.62
2018-01-15T06:31:29.170Z,4.58
2018-01-15T06:32:29.147Z,4.58
2018-01-15T06:33:29.749Z,4.56
2018-01-15T06:34:29.463Z,4.58
2018-01-15T06:35:29.464Z,4.58
2018-01-15T06:36:29.531Z,4.58
2018-01-15T06:37:29.474Z,4.5
2018-01-15T06:38:29.534Z,4.55
2018-01-15T06:39:29.329Z,4.5
2018-01-15T06:40:29.681Z,4.58
2018-01-15T06:41:29.575Z,4.49
2018-01-15T06:42:29.551Z,4.52
2018-01-15T06:43:29.532Z,4.48
2018-01-15T06:44:29.550Z,4.55
2018-01-15T06:45:29.715Z,4.45
2018-01-15T06:46:29.562Z,4.48
2018-01-15T06:47:29.663Z,4.45
2018-01-15T06:48:29.337Z,4.42
2018-01-15T06:49:29.578Z,4.44
2018-01-15T06:50:29.304Z,4.52
2018-01-15T06:51:29.344Z,4.49
2018-01-15T06:52:29.834Z,4.49
2018-01-15T06:53:29.893Z,4.5
2018-01-15T06:54:29.605Z,4.48
2018-01-15T06:55:29.973Z,4.53
2018-01-15T06:56:29.669Z,4.5
2018-01-15T06:57:29.688Z,4.48
2018-01-15T06:58:29.876Z,4.44
2018-01-15T06:59:29.422Z,4.49
2018-01-15T07:00:29.990Z,4.35
2018-01-15T07:01:29.419Z,4.42
2018-01-15T07:02:29.983Z,4.41
2018-01-15T07:03:29.440Z,4.38
2018-01-15T07:04:30.022Z,4.44
2018-01-15T07:05:30.093Z,4.4
2018-01-15T07:06:30.018Z,4.37
2018-01-15T07:07:29.522Z,4.35
2018-01-15T07:08:29.774Z,4.31
2018-01-15T07:09:29.486Z,4.35
2018-01-15T07:10:30.193Z,4.35
2018-01-15T07:11:29.791Z,4.3
2018-01-15T07:12:29.798Z,4.32
2018-01-15T07:13:29.568Z,4.34
2018-01-15T07:14:29.568Z,4.32
2018-01-15T07:15:30.307Z,4.32
2018-01-15T07:16:29.829Z,4.32
2018-01-15T07:17:29.894Z,4.3
2018-01-15T07:18:29.594Z,4.26
2018-01-15T07:19:29.585Z,4.28
2018-01-15T07:20:29.877Z,4.34
2018-01-15T07:21:30.171Z,4.32
2018-01-15T07:22:30.234Z,4.28
2018-01-15T07:23:29.946Z,4.35
2018-01-15T07:24:29.962Z,4.32
2018-01-15T07:25:29.842Z,4.32
2018-01-15T07:26:29.939Z,4.28
2018-01-15T07:27:29.697Z,4.31
2018-01-15T07:28:30.019Z,4.32
2018-01-15T07:29:30.270Z,4.3
2018-01-15T07:30:29.996Z,4.24
2018-01-15T07:31:30.273Z,4.28
2018-01-15T07:32:29.719Z,4.28
2018-01-15T07:33:30.024Z,4.34
2018-01-15T07:34:30.016Z,4.23
2018-01-15T07:35:30.069Z,4.23
2018-01-15T07:36:30.263Z,4.19
2018-01-15T07:37:30.353Z,4.19
2018-01-15T07:38:29.788Z,4.3
2018-01-15T07:39:30.370Z,4.17
2018-01-15T07:40:30.092Z,4.24
2018-01-15T07:41:29.850Z,4.17
2018-01-15T07:42:29.803Z,4.2
2018-01-15T07:43:30.090Z,4.24
2018-01-15T07:44:30.112Z,4.22
2018-01-15T07:45:29.887Z,4.35
2018-01-15T07:46:30.407Z,4.23
2018-01-15T07:47:30.180Z,4.24
2018-01-15T07:48:30.178Z,4.23
2018-01-15T07:49:30.156Z,4.32
2018-01-15T07:50:30.509Z,4.24
2018-01-15T07:51:30.169Z,4.34
2018-01-15T07:52:30.211Z,4.35
2018-01-15T07:53:30.231Z,4.3
2018-01-15T07:54:30.509Z,4.31
2018-01-15T07:55:30.316Z,4.34
2018-01-15T07:56:30.255Z,4.32
2018-01-15T07:57:30.267Z,4.26
2018-01-15T07:58:30.254Z,4.31
2018-01-15T07:59:30.290Z,4.28
2018-01-15T08:00:30.283Z,4.26
2018-01-15T08:01:30.019Z,4.35
2018-01-15T08:02:30.593Z,4.26
2018-01-15T08:03:30.627Z,4.32
2018-01-15T08:04:30.293Z,4.28
2018-01-15T08:05:30.610Z,4.26
2018-01-15T08:06:30.059Z,4.37
2018-01-15T08:07:30.343Z,4.3
2018-01-15T08:08:30.366Z,4.3
2018-01-15T08:09:30.512Z,4.28
2018-01-15T08:10:30.379Z,4.37
2018-01-15T08:11:30.423Z,4.28
2018-01-15T08:12:30.434Z,4.34
2018-01-15T08:13:30.139Z,4.34
2018-01-15T08:14:30.733Z,4.35
2018-01-15T08:15:30.431Z,4.3
2018-01-15T08:16:30.741Z,4.32
2018-01-15T08:17:30.193Z,4.35
2018-01-15T08:18:30.481Z,4.32
2018-01-15T08:19:30.782Z,4.37
2018-01-15T08:20:30.505Z,4.38
2018-01-15T08:21:30.252Z,4.38
2018-01-15T08:22:30.239Z,4.35
2018-01-15T08:23:30.532Z,4.34
2018-01-15T08:24:30.560Z,4.32
2018-01-15T08:25:30.546Z,4.32
2018-01-15T08:26:30.533Z,4.34
2018-01-15T08:27:30.822Z,4.35
2018-01-15T08:28:30.561Z,4.3
2018-01-15T08:29:30.304Z,4.37
2018-01-15T08:30:30.539Z,4.41
2018-01-15T08:31:30.348Z,4.37
2018-01-15T08:32:30.571Z,4.38
2018-01-15T08:33:30.302Z,4.34
2018-01-15T08:34:30.649Z,4.37
2018-01-15T08:35:30.345Z,4.41
2018-01-15T08:36:31.867Z,4.35
2018-01-15T08:37:30.666Z,4.38
2018-01-15T08:38:30.391Z,4.49
2018-01-15T08:39:30.919Z,4.49
2018-01-15T08:40:30.667Z,4.45
2018-01-15T08:41:30.392Z,4.49
2018-01-15T08:42:30.392Z,4.44
2018-01-15T08:43:30.727Z,4.48
2018-01-15T08:44:30.675Z,4.5
2018-01-15T08:45:31.053Z,4.58
2018-01-15T08:46:30.736Z,4.48
2018-01-15T08:47:30.988Z,4.48
2018-01-15T08:48:30.733Z,4.5
2018-01-15T08:49:30.754Z,4.58
2018-01-15T08:50:30.761Z,4.55
2018-01-15T08:51:30.670Z,4.55
2018-01-15T08:52:31.040Z,4.56
2018-01-15T08:53:30.505Z,4.59
2018-01-15T08:54:30.834Z,4.62
2018-01-15T08:55:30.613Z,4.59
2018-01-15T08:56:30.822Z,4.58
2018-01-15T08:57:30.830Z,4.58
2018-01-15T08:58:30.555Z,4.59
2018-01-15T08:59:30.830Z,4.62
2018-01-15T09:00:30.871Z,4.58
2018-01-15T09:01:30.904Z,4.63
2018-01-15T09:02:31.202Z,4.6
2018-01-15T09:03:30.633Z,4.68
2018-01-15T09:04:31.140Z,4.68
2018-01-15T09:05:30.903Z,4.7
2018-01-15T09:06:31.067Z,4.62
2018-01-15T09:07:30.650Z,4.73
2018-01-15T09:08:30.665Z,4.67
2018-01-15T09:09:30.934Z,4.75
2018-01-15T09:10:30.650Z,4.7
2018-01-15T09:11:30.985Z,4.82
2018-01-15T09:12:30.966Z,4.87
2018-01-15T09:13:31.311Z,4.86
2018-01-15T09:14:30.708Z,4.8
2018-01-15T09:15:30.981Z,4.84
2018-01-15T09:16:31.050Z,4.87
2018-01-15T09:17:31.025Z,4.87
2018-01-15T09:18:30.747Z,4.9
2018-01-15T09:19:31.025Z,4.92
2018-01-15T09:20:31.056Z,4.94
2018-01-15T09:21:31.350Z,4.9
2018-01-15T09:22:30.776Z,4.93
2018-01-15T09:23:30.794Z,5
2018-01-15T09:24:30.794Z,4.96
2018-01-15T09:25:31.130Z,4.96
2018-01-15T09:26:31.108Z,4.99
2018-01-15T09:27:31.101Z,5.02
2018-01-15T09:28:31.170Z,5.04
2018-01-15T09:29:31.423Z,5.08
2018-01-15T09:30:31.425Z,5.12
2018-01-15T09:31:31.160Z,5.1
2018-01-15T09:32:31.425Z,5.12
2018-01-15T09:33:31.470Z,5.12
2018-01-15T09:34:31.505Z,5.15
2018-01-15T09:35:31.208Z,5.21
2018-01-15T09:36:31.553Z,5.18
2018-01-15T09:37:30.937Z,5.25
2018-01-15T09:38:31.238Z,5.18
2018-01-15T09:39:31.215Z,5.29
2018-01-15T09:40:31.260Z,5.2
2018-01-15T09:41:30.950Z,5.17
2018-01-15T09:42:31.541Z,5.28
2018-01-15T09:43:31.295Z,5.25
2018-01-15T09:44:31.598Z,5.29
2018-01-15T09:45:31.603Z,5.29
2018-01-15T09:46:31.734Z,5.33
2018-01-15T09:47:31.327Z,5.33
2018-01-15T09:48:31.566Z,5.32
2018-01-15T09:49:31.371Z,5.3
2018-01-15T09:50:31.060Z,5.32
2018-01-15T09:51:31.828Z,5.35
2018-01-15T09:52:31.364Z,5.44
2018-01-15T09:53:31.374Z,5.44
2018-01-15T09:54:31.697Z,5.41
2018-01-15T09:55:31.698Z,5.39
2018-01-15T09:56:31.741Z,5.5
2018-01-15T09:57:31.701Z,5.43
2018-01-15T09:58:31.444Z,5.48
2018-01-15T09:59:31.466Z,5.5
2018-01-15T10:00:31.446Z,5.47
2018-01-15T10:01:31.490Z,5.62
2018-01-15T10:02:31.461Z,5.59
2018-01-15T10:03:31.188Z,5.61
2018-01-15T10:04:31.463Z,5.64
2018-01-15T10:05:31.481Z,5.65
2018-01-15T10:06:31.790Z,5.71
2018-01-15T10:07:31.536Z,5.68
2018-01-15T10:08:31.527Z,5.65
2018-01-15T10:09:31.528Z,5.69
2018-01-15T10:10:31.839Z,5.69
2018-01-15T10:11:31.542Z,5.69
2018-01-15T10:12:31.848Z,5.76
2018-01-15T10:13:31.565Z,5.73
2018-01-15T10:14:31.307Z,5.76
2018-01-15T10:15:31.586Z,5.8
2018-01-15T10:16:31.577Z,5.83
2018-01-15T10:17:31.361Z,5.86
2018-01-15T10:18:31.900Z,5.83
2018-01-15T10:19:31.991Z,5.83
2018-01-15T10:20:31.358Z,5.87
2018-01-15T10:21:31.379Z,5.9
2018-01-15T10:22:31.656Z,5.89
2018-01-15T10:23:31.663Z,5.83
2018-01-15T10:24:31.709Z,5.91
2018-01-15T10:25:31.713Z,5.94
2018-01-15T10:26:31.430Z,5.9
2018-01-15T10:27:31.681Z,5.99
2018-01-15T10:28:31.724Z,6.01
2018-01-15T10:29:31.438Z,6.02
2018-01-15T10:30:31.754Z,6.02
2018-01-15T10:31:31.784Z,6.09
2018-01-15T10:32:31.772Z,6.11
2018-01-15T10:33:32.058Z,6.14
2018-01-15T10:34:32.094Z,6.24
2018-01-15T10:35:31.488Z,6.27
2018-01-15T10:36:32.238Z,6.31
2018-01-15T10:37:31.849Z,6.26
2018-01-15T10:38:32.111Z,6.33
2018-01-15T10:39:31.838Z,6.31
2018-01-15T10:40:31.829Z,6.39
2018-01-15T10:41:31.581Z,6.33
2018-01-15T10:42:32.112Z,6.33
2018-01-15T10:43:31.581Z,6.39
2018-01-15T10:44:31.601Z,6.36
2018-01-15T10:45:31.902Z,6.39
2018-01-15T10:46:31.875Z,6.35
2018-01-15T10:47:32.229Z,6.51
2018-01-15T10:48:32.174Z,6.42
2018-01-15T10:49:31.909Z,6.48
2018-01-15T10:50:31.980Z,6.42
2018-01-15T10:51:31.940Z,6.45
2018-01-15T10:52:31.739Z,6.56
2018-01-15T10:53:31.684Z,6.48
2018-01-15T10:54:31.959Z,6.48
2018-01-15T10:55:32.318Z,6.46
2018-01-15T10:56:32.303Z,6.49
2018-01-15T10:57:32.034Z,6.51
2018-01-15T10:58:32.036Z,6.52
2018-01-15T10:59:32.355Z,6.49
2018-01-15T11:00:31.768Z,6.59
2018-01-15T11:01:32.353Z,6.54
2018-01-15T11:02:32.134Z,6.51
2018-01-15T11:03:32.090Z,6.49
2018-01-15T11:04:32.413Z,6.52
2018-01-15T11:05:32.363Z,6.57
2018-01-15T11:06:32.110Z,6.56
2018-01-15T11:07:32.132Z,6.51
2018-01-15T11:08:32.461Z,6.62
2018-01-15T11:09:31.852Z,6.64
2018-01-15T11:10:32.160Z,6.64
2018-01-15T11:11:32.161Z,6.63
2018-01-15T11:12:32.624Z,6.62
2018-01-15T11:13:31.939Z,6.7
2018-01-15T11:14:32.235Z,6.67
2018-01-15T11:15:31.905Z,6.66
2018-01-15T11:16:31.947Z,6.77
2018-01-15T11:17:32.287Z,6.77
2018-01-15T11:18:32.255Z,6.72
2018-01-15T11:19:32.279Z,6.67
2018-01-15T11:20:31.959Z,6.66
2018-01-15T11:21:32.307Z,6.69
2018-01-15T11:22:32.303Z,6.75
2018-01-15T11:23:32.331Z,6.7
2018-01-15T11:24:32.024Z,6.72
2018-01-15T11:25:32.385Z,6.69
2018-01-15T11:26:32.369Z,6.66
2018-01-15T11:27:32.382Z,6.7
2018-01-15T11:28:32.469Z,6.72
2018-01-15T11:29:32.337Z,6.67
2018-01-15T11:30:32.375Z,6.77
2018-01-15T11:31:32.665Z,6.7
2018-01-15T11:32:32.561Z,6.72
2018-01-15T11:33:32.448Z,6.78
2018-01-15T11:34:32.395Z,6.79
2018-01-15T11:35:32.721Z,6.79
2018-01-15T11:36:32.741Z,6.81
2018-01-15T11:37:32.610Z,6.82
2018-01-15T11:38:32.428Z,6.85
2018-01-15T11:39:32.781Z,6.88
2018-01-15T11:40:32.766Z,6.92
2018-01-15T11:41:32.217Z,6.95
2018-01-15T11:42:32.778Z,6.89
2018-01-15T11:43:32.493Z,6.97
2018-01-15T11:44:32.528Z,7.05
2018-01-15T11:45:32.569Z,7.05
2018-01-15T11:46:32.578Z,6.96
2018-01-15T11:47:32.708Z,7.07
2018-01-15T11:48:32.296Z,7.07
2018-01-15T11:49:32.587Z,7.23
2018-01-15T11:50:32.594Z,7.17
2018-01-15T11:51:32.311Z,7.14
2018-01-15T11:52:32.651Z,7.2
2018-01-15T11:53:32.868Z,7.17
2018-01-15T11:54:32.626Z,7.17
2018-01-15T11:55:32.630Z,7.21
2018-01-15T11:56:32.395Z,7.2
2018-01-15T11:57:32.649Z,7.29
2018-01-15T11:58:32.655Z,7.33
2018-01-15T11:59:32.697Z,7.24
2018-01-15T12:00:32.694Z,7.28
2018-01-15T12:01:32.999Z,7.25
2018-01-15T12:02:33.062Z,7.4
2018-01-15T12:03:32.767Z,7.36
2018-01-15T12:04:32.721Z,7.38
2018-01-15T12:05:33.035Z,7.36
2018-01-15T12:06:32.486Z,7.35
2018-01-15T12:07:33.110Z,7.36
2018-01-15T12:08:33.038Z,7.38
2018-01-15T12:09:32.784Z,7.39
2018-01-15T12:10:32.849Z,7.39
2018-01-15T12:11:33.083Z,7.45
2018-01-15T12:12:32.852Z,7.45
2018-01-15T12:13:32.578Z,7.45
2018-01-15T12:14:32.845Z,7.5
2018-01-15T12:15:32.877Z,7.47
2018-01-15T12:16:33.237Z,7.48
2018-01-15T12:17:32.931Z,7.4
2018-01-15T12:18:33.062Z,7.51
2018-01-15T12:19:33.018Z,7.51
2018-01-15T12:20:33.174Z,7.53
2018-01-15T12:21:32.976Z,7.48
2018-01-15T12:22:33.017Z,7.47
2018-01-15T12:23:32.994Z,7.47
2018-01-15T12:24:32.971Z,7.66
2018-01-15T12:25:33.262Z,7.7
2018-01-15T12:26:33.242Z,7.66
2018-01-15T12:27:33.044Z,7.61
2018-01-15T12:28:33.369Z,7.63
2018-01-15T12:29:33.321Z,7.67
2018-01-15T12:30:33.057Z,7.69
2018-01-15T12:31:32.803Z,7.72
2018-01-15T12:32:33.313Z,7.69
2018-01-15T12:33:33.322Z,7.72
2018-01-15T12:34:33.402Z,7.7
2018-01-15T12:35:33.102Z,7.75
2018-01-15T12:36:33.104Z,7.79
2018-01-15T12:37:33.013Z,7.72
2018-01-15T12:38:33.173Z,7.72
2018-01-15T12:39:32.854Z,7.76
2018-01-15T12:40:33.449Z,7.76
2018-01-15T12:41:33.138Z,7.8
2018-01-15T12:42:33.460Z,7.69
2018-01-15T12:43:33.195Z,7.7
2018-01-15T12:44:33.263Z,7.77
2018-01-15T12:45:33.508Z,7.73
2018-01-15T12:46:33.485Z,7.67
2018-01-15T12:47:33.558Z,7.73
2018-01-15T12:48:33.001Z,7.75
2018-01-15T12:49:33.251Z,7.7
2018-01-15T12:50:33.261Z,7.72
2018-01-15T12:51:33.308Z,7.73
2018-01-15T12:52:33.334Z,7.72
2018-01-15T12:53:33.301Z,7.72
2018-01-15T12:54:33.584Z,7.69
2018-01-15T12:55:33.062Z,7.67
2018-01-15T12:56:33.336Z,7.67
2018-01-15T12:57:33.096Z,7.75
2018-01-15T12:58:33.384Z,7.73
2018-01-15T12:59:33.394Z,7.66
2018-01-15T13:00:33.416Z,7.69
2018-01-15T13:01:33.387Z,7.67
2018-01-15T13:02:33.731Z,7.73
2018-01-15T13:03:33.461Z,7.72
2018-01-15T13:04:33.176Z,7.72
2018-01-15T13:05:33.200Z,7.61
2018-01-15T13:06:33.435Z,7.73
2018-01-15T13:07:33.218Z,7.72
2018-01-15T13:08:33.514Z,7.69
2018-01-15T13:09:33.498Z,7.69
2018-01-15T13:10:33.489Z,7.56
2018-01-15T13:11:33.253Z,7.6
2018-01-15T13:12:33.502Z,7.66
2018-01-15T13:13:33.556Z,7.66
2018-01-15T13:14:33.269Z,7.63
2018-01-15T13:15:33.581Z,7.57
2018-01-15T13:16:33.549Z,7.61
2018-01-15T13:17:33.311Z,7.57
2018-01-15T13:18:33.880Z,7.61
2018-01-15T13:19:33.394Z,7.61
2018-01-15T13:20:33.661Z,7.45
2018-01-15T13:21:33.619Z,7.47